sensor_id;sensor_type;location;lat;lon;timestamp;temperature;humidity
9915;DHT22;4996;48.746;9.174;2023-04-19T00:00:05;11.30;99.90
9915;DHT22;4996;48.746;9.174;2023-04-19T00:02:33;11.40;99.90
9915;DHT22;4996;48.746;9.174;2023-04-19T00:04:59;11.30;99.90
9915;DHT22;4996;48.746;9.174;2023-04-19T00:07:25;11.30;99.90
9915;DHT22;4996;48.746;9.174;2023-04-19T00:09:50;11.30;99.90
9915;DHT22;4996;48.746;9.174;2023-04-19T00:12:16;11.40;99.90
9915;DHT22;4996;48.746;9.174;2023-04-19T00:14:41;11.40;99.90
9915;DHT22;4996;48.746;9.174;2023-04-19T00:17:07;11.40;99.90
9915;DHT22;4996;48.746;9.174;2023-04-19T00:19:32;11.30;99.90
9915;DHT22;4996;48.746;9.174;2023-04-19T00:21:58;11.30;99.90
9915;DHT22;4996;48.746;9.174;2023-04-19T00:24:23;11.30;99.90
9915;DHT22;4996;48.746;9.174;2023-04-19T00:26:49;11.40;99.90
9915;DHT22;4996;48.746;9.174;2023-04-19T00:29:14;11.30;99.90
9915;DHT22;4996;48.746;9.174;2023-04-19T00:31:40;11.40;99.90
9915;DHT22;4996;48.746;9.174;2023-04-19T00:34:06;11.40;99.90
9915;DHT22;4996;48.746;9.174;2023-04-19T00:36:31;11.40;99.90
9915;DHT22;4996;48.746;9.174;2023-04-19T00:38:57;11.40;99.90
9915;DHT22;4996;48.746;9.174;2023-04-19T00:41:22;11.30;99.90
9915;DHT22;4996;48.746;9.174;2023-04-19T00:43:48;11.40;99.90
9915;DHT22;4996;48.746;9.174;2023-04-19T00:46:14;11.40;99.90
9915;DHT22;4996;48.746;9.174;2023-04-19T00:48:40;11.20;99.90
9915;DHT22;4996;48.746;9.174;2023-04-19T00:51:06;11.10;99.90
9915;DHT22;4996;48.746;9.174;2023-04-19T00:53:32;11.20;99.90
9915;DHT22;4996;48.746;9.174;2023-04-19T00:56:01;11.20;99.90
9915;DHT22;4996;48.746;9.174;2023-04-19T00:58:28;11.30;99.90
9915;DHT22;4996;48.746;9.174;2023-04-19T01:00:55;11.30;99.90
9915;DHT22;4996;48.746;9.174;2023-04-19T01:03:21;11.30;99.90
9915;DHT22;4996;48.746;9.174;2023-04-19T01:05:47;11.10;99.90
9915;DHT22;4996;48.746;9.174;2023-04-19T01:08:13;11.30;99.90
9915;DHT22;4996;48.746;9.174;2023-04-19T01:10:39;11.20;99.90
9915;DHT22;4996;48.746;9.174;2023-04-19T01:13:04;11.20;99.90
9915;DHT22;4996;48.746;9.174;2023-04-19T01:15:30;11.20;99.90
9915;DHT22;4996;48.746;9.174;2023-04-19T01:17:56;11.00;99.90
9915;DHT22;4996;48.746;9.174;2023-04-19T01:20:22;11.00;99.90
9915;DHT22;4996;48.746;9.174;2023-04-19T01:22:47;11.00;99.90
9915;DHT22;4996;48.746;9.174;2023-04-19T01:25:13;11.10;99.90
9915;DHT22;4996;48.746;9.174;2023-04-19T01:27:39;11.10;99.90
9915;DHT22;4996;48.746;9.174;2023-04-19T01:30:04;11.00;99.90
9915;DHT22;4996;48.746;9.174;2023-04-19T01:32:30;11.10;99.90
9915;DHT22;4996;48.746;9.174;2023-04-19T01:34:56;11.10;99.90
9915;DHT22;4996;48.746;9.174;2023-04-19T01:37:21;11.10;99.90
9915;DHT22;4996;48.746;9.174;2023-04-19T01:39:47;11.10;99.90
9915;DHT22;4996;48.746;9.174;2023-04-19T01:42:13;11.10;99.90
9915;DHT22;4996;48.746;9.174;2023-04-19T01:44:38;11.10;99.90
9915;DHT22;4996;48.746;9.174;2023-04-19T01:47:04;11.10;99.90
9915;DHT22;4996;48.746;9.174;2023-04-19T01:49:29;11.00;99.90
9915;DHT22;4996;48.746;9.174;2023-04-19T01:51:55;11.00;99.90
9915;DHT22;4996;48.746;9.174;2023-04-19T01:54:20;10.90;99.90
9915;DHT22;4996;48.746;9.174;2023-04-19T01:56:46;10.90;99.90
9915;DHT22;4996;48.746;9.174;2023-04-19T01:59:11;10.90;99.90
9915;DHT22;4996;48.746;9.174;2023-04-19T02:01:37;10.90;99.90
9915;DHT22;4996;48.746;9.174;2023-04-19T02:04:02;11.00;99.90
9915;DHT22;4996;48.746;9.174;2023-04-19T02:06:28;10.80;99.90
9915;DHT22;4996;48.746;9.174;2023-04-19T02:08:54;10.90;99.90
9915;DHT22;4996;48.746;9.174;2023-04-19T02:11:20;10.90;99.90
9915;DHT22;4996;48.746;9.174;2023-04-19T02:13:45;10.90;99.90
9915;DHT22;4996;48.746;9.174;2023-04-19T02:16:11;10.90;99.90
9915;DHT22;4996;48.746;9.174;2023-04-19T02:18:36;11.00;99.90
9915;DHT22;4996;48.746;9.174;2023-04-19T02:21:04;11.00;99.90
9915;DHT22;4996;48.746;9.174;2023-04-19T02:23:30;11.20;99.90
9915;DHT22;4996;48.746;9.174;2023-04-19T02:25:55;11.00;99.90
9915;DHT22;4996;48.746;9.174;2023-04-19T02:28:21;11.00;99.90
9915;DHT22;4996;48.746;9.174;2023-04-19T02:30:46;10.70;99.90
9915;DHT22;4996;48.746;9.174;2023-04-19T02:33:13;10.70;99.90
9915;DHT22;4996;48.746;9.174;2023-04-19T02:35:38;10.80;99.90
9915;DHT22;4996;48.746;9.174;2023-04-19T02:38:04;10.60;99.90
9915;DHT22;4996;48.746;9.174;2023-04-19T02:40:30;10.70;99.90
9915;DHT22;4996;48.746;9.174;2023-04-19T02:42:55;10.70;99.90
9915;DHT22;4996;48.746;9.174;2023-04-19T02:45:21;10.80;99.90
9915;DHT22;4996;48.746;9.174;2023-04-19T02:47:47;10.80;99.90
9915;DHT22;4996;48.746;9.174;2023-04-19T02:50:13;10.80;99.90
9915;DHT22;4996;48.746;9.174;2023-04-19T02:52:39;10.80;99.90
9915;DHT22;4996;48.746;9.174;2023-04-19T02:55:05;10.70;99.90
9915;DHT22;4996;48.746;9.174;2023-04-19T02:57:31;10.60;99.90
9915;DHT22;4996;48.746;9.174;2023-04-19T02:59:57;10.70;99.90
9915;DHT22;4996;48.746;9.174;2023-04-19T03:02:23;10.60;99.90
9915;DHT22;4996;48.746;9.174;2023-04-19T03:04:49;10.50;99.90
9915;DHT22;4996;48.746;9.174;2023-04-19T03:07:14;10.50;99.90
9915;DHT22;4996;48.746;9.174;2023-04-19T03:09:40;10.50;99.90
9915;DHT22;4996;48.746;9.174;2023-04-19T03:12:06;10.50;99.90
9915;DHT22;4996;48.746;9.174;2023-04-19T03:14:32;10.40;99.90
9915;DHT22;4996;48.746;9.174;2023-04-19T03:16:58;10.40;99.90
9915;DHT22;4996;48.746;9.174;2023-04-19T03:19:24;10.50;99.90
9915;DHT22;4996;48.746;9.174;2023-04-19T03:21:49;10.50;99.90
9915;DHT22;4996;48.746;9.174;2023-04-19T03:24:17;10.50;99.90
9915;DHT22;4996;48.746;9.174;2023-04-19T03:26:43;10.60;99.90
9915;DHT22;4996;48.746;9.174;2023-04-19T03:29:09;10.60;99.90
9915;DHT22;4996;48.746;9.174;2023-04-19T03:31:34;10.50;99.90
9915;DHT22;4996;48.746;9.174;2023-04-19T03:34:00;10.60;99.90
9915;DHT22;4996;48.746;9.174;2023-04-19T03:36:26;10.60;99.90
9915;DHT22;4996;48.746;9.174;2023-04-19T03:38:52;10.60;99.90
9915;DHT22;4996;48.746;9.174;2023-04-19T03:41:22;10.50;99.90
9915;DHT22;4996;48.746;9.174;2023-04-19T03:43:48;10.50;99.90
9915;DHT22;4996;48.746;9.174;2023-04-19T03:46:13;10.50;99.90
9915;DHT22;4996;48.746;9.174;2023-04-19T03:48:39;10.50;99.90
9915;DHT22;4996;48.746;9.174;2023-04-19T03:51:05;10.50;99.90
9915;DHT22;4996;48.746;9.174;2023-04-19T03:53:30;10.50;99.90
9915;DHT22;4996;48.746;9.174;2023-04-19T03:55:56;10.40;99.90
9915;DHT22;4996;48.746;9.174;2023-04-19T03:58:21;10.50;99.90
9915;DHT22;4996;48.746;9.174;2023-04-19T04:00:47;10.30;99.90
9915;DHT22;4996;48.746;9.174;2023-04-19T04:03:13;10.30;99.90
9915;DHT22;4996;48.746;9.174;2023-04-19T04:05:38;10.30;99.90
9915;DHT22;4996;48.746;9.174;2023-04-19T04:08:04;10.30;99.90
9915;DHT22;4996;48.746;9.174;2023-04-19T04:10:30;10.20;99.90
9915;DHT22;4996;48.746;9.174;2023-04-19T04:12:55;10.20;99.90
9915;DHT22;4996;48.746;9.174;2023-04-19T04:15:21;10.20;99.90
9915;DHT22;4996;48.746;9.174;2023-04-19T04:17:46;10.20;99.90
9915;DHT22;4996;48.746;9.174;2023-04-19T04:20:12;10.10;99.90
9915;DHT22;4996;48.746;9.174;2023-04-19T04:22:44;10.10;99.90
9915;DHT22;4996;48.746;9.174;2023-04-19T04:25:15;10.20;99.90
9915;DHT22;4996;48.746;9.174;2023-04-19T04:27:41;10.10;99.90
9915;DHT22;4996;48.746;9.174;2023-04-19T04:30:08;10.00;99.90
9915;DHT22;4996;48.746;9.174;2023-04-19T04:32:34;10.00;99.90
9915;DHT22;4996;48.746;9.174;2023-04-19T04:35:04;10.00;99.90
9915;DHT22;4996;48.746;9.174;2023-04-19T04:37:33;10.00;99.90
9915;DHT22;4996;48.746;9.174;2023-04-19T04:40:00;10.10;99.90
9915;DHT22;4996;48.746;9.174;2023-04-19T04:42:26;10.00;99.90
9915;DHT22;4996;48.746;9.174;2023-04-19T04:44:52;10.00;99.90
9915;DHT22;4996;48.746;9.174;2023-04-19T04:47:17;10.00;99.90
9915;DHT22;4996;48.746;9.174;2023-04-19T04:49:43;10.00;99.90
9915;DHT22;4996;48.746;9.174;2023-04-19T04:52:08;9.90;99.90
9915;DHT22;4996;48.746;9.174;2023-04-19T04:54:34;9.90;99.90
9915;DHT22;4996;48.746;9.174;2023-04-19T04:56:59;10.00;99.90
9915;DHT22;4996;48.746;9.174;2023-04-19T04:59:25;10.10;99.90
9915;DHT22;4996;48.746;9.174;2023-04-19T05:01:51;10.20;99.90
9915;DHT22;4996;48.746;9.174;2023-04-19T05:04:18;10.10;99.90
9915;DHT22;4996;48.746;9.174;2023-04-19T05:06:43;10.10;99.90
9915;DHT22;4996;48.746;9.174;2023-04-19T05:09:09;10.20;99.90
9915;DHT22;4996;48.746;9.174;2023-04-19T05:11:35;10.30;99.90
9915;DHT22;4996;48.746;9.174;2023-04-19T05:14:01;10.30;99.90
9915;DHT22;4996;48.746;9.174;2023-04-19T05:16:27;10.30;99.90
9915;DHT22;4996;48.746;9.174;2023-04-19T05:18:52;10.40;99.90
9915;DHT22;4996;48.746;9.174;2023-04-19T05:21:18;10.30;99.90
9915;DHT22;4996;48.746;9.174;2023-04-19T05:23:43;10.30;99.90
9915;DHT22;4996;48.746;9.174;2023-04-19T05:26:09;10.30;99.90
9915;DHT22;4996;48.746;9.174;2023-04-19T05:28:40;10.30;99.90
9915;DHT22;4996;48.746;9.174;2023-04-19T05:31:07;10.10;99.90
9915;DHT22;4996;48.746;9.174;2023-04-19T05:33:32;10.00;99.90
9915;DHT22;4996;48.746;9.174;2023-04-19T05:35:58;10.00;99.90
9915;DHT22;4996;48.746;9.174;2023-04-19T05:38:23;10.00;99.90
9915;DHT22;4996;48.746;9.174;2023-04-19T05:40:49;10.00;99.90
9915;DHT22;4996;48.746;9.174;2023-04-19T05:43:15;9.90;99.90
9915;DHT22;4996;48.746;9.174;2023-04-19T05:45:40;10.00;99.90
9915;DHT22;4996;48.746;9.174;2023-04-19T05:48:06;10.10;99.90
9915;DHT22;4996;48.746;9.174;2023-04-19T05:50:31;10.00;99.90
9915;DHT22;4996;48.746;9.174;2023-04-19T05:52:57;10.00;99.90
9915;DHT22;4996;48.746;9.174;2023-04-19T05:55:22;10.10;99.90
9915;DHT22;4996;48.746;9.174;2023-04-19T05:57:49;9.80;99.90
9915;DHT22;4996;48.746;9.174;2023-04-19T06:00:15;10.00;99.90
9915;DHT22;4996;48.746;9.174;2023-04-19T06:02:40;10.00;99.90
9915;DHT22;4996;48.746;9.174;2023-04-19T06:05:06;10.10;99.90
9915;DHT22;4996;48.746;9.174;2023-04-19T06:07:32;10.00;99.90
9915;DHT22;4996;48.746;9.174;2023-04-19T06:09:57;10.00;99.90
9915;DHT22;4996;48.746;9.174;2023-04-19T06:12:23;9.80;99.90
9915;DHT22;4996;48.746;9.174;2023-04-19T06:14:48;9.80;99.90
9915;DHT22;4996;48.746;9.174;2023-04-19T06:17:14;9.90;99.90
9915;DHT22;4996;48.746;9.174;2023-04-19T06:19:47;10.10;99.90
9915;DHT22;4996;48.746;9.174;2023-04-19T06:22:13;10.10;99.90
9915;DHT22;4996;48.746;9.174;2023-04-19T06:24:38;10.10;99.90
9915;DHT22;4996;48.746;9.174;2023-04-19T06:27:04;10.20;99.90
9915;DHT22;4996;48.746;9.174;2023-04-19T06:29:30;10.30;99.90
9915;DHT22;4996;48.746;9.174;2023-04-19T06:31:55;10.40;99.90
9915;DHT22;4996;48.746;9.174;2023-04-19T06:34:21;10.40;99.90
9915;DHT22;4996;48.746;9.174;2023-04-19T06:36:46;10.60;99.90
9915;DHT22;4996;48.746;9.174;2023-04-19T06:39:13;10.70;99.90
9915;DHT22;4996;48.746;9.174;2023-04-19T06:41:39;10.60;99.90
9915;DHT22;4996;48.746;9.174;2023-04-19T06:44:04;10.70;99.90
9915;DHT22;4996;48.746;9.174;2023-04-19T06:46:30;10.80;99.90
9915;DHT22;4996;48.746;9.174;2023-04-19T06:48:55;10.80;99.90
9915;DHT22;4996;48.746;9.174;2023-04-19T06:51:21;10.60;99.90
9915;DHT22;4996;48.746;9.174;2023-04-19T06:53:48;10.80;99.90
9915;DHT22;4996;48.746;9.174;2023-04-19T06:56:13;10.80;99.90
9915;DHT22;4996;48.746;9.174;2023-04-19T06:58:39;10.90;99.90
9915;DHT22;4996;48.746;9.174;2023-04-19T07:01:04;10.80;99.90
9915;DHT22;4996;48.746;9.174;2023-04-19T07:03:30;10.70;99.90
9915;DHT22;4996;48.746;9.174;2023-04-19T07:05:56;10.80;99.90
9915;DHT22;4996;48.746;9.174;2023-04-19T07:08:23;10.70;99.90
9915;DHT22;4996;48.746;9.174;2023-04-19T07:10:48;10.70;99.90
9915;DHT22;4996;48.746;9.174;2023-04-19T07:13:14;10.80;99.90
9915;DHT22;4996;48.746;9.174;2023-04-19T07:15:39;10.80;99.90
9915;DHT22;4996;48.746;9.174;2023-04-19T07:18:05;10.90;99.90
9915;DHT22;4996;48.746;9.174;2023-04-19T07:20:31;11.10;99.90
9915;DHT22;4996;48.746;9.174;2023-04-19T07:22:59;11.10;99.90
9915;DHT22;4996;48.746;9.174;2023-04-19T07:25:25;11.10;99.90
9915;DHT22;4996;48.746;9.174;2023-04-19T07:27:54;10.90;99.90
9915;DHT22;4996;48.746;9.174;2023-04-19T07:30:20;11.00;99.90
9915;DHT22;4996;48.746;9.174;2023-04-19T07:32:45;11.00;99.90
9915;DHT22;4996;48.746;9.174;2023-04-19T07:35:11;11.10;99.90
9915;DHT22;4996;48.746;9.174;2023-04-19T07:37:37;11.20;99.90
9915;DHT22;4996;48.746;9.174;2023-04-19T07:40:03;11.30;99.90
9915;DHT22;4996;48.746;9.174;2023-04-19T07:42:29;11.30;99.90
9915;DHT22;4996;48.746;9.174;2023-04-19T07:44:55;11.30;99.90
9915;DHT22;4996;48.746;9.174;2023-04-19T07:47:21;11.40;99.90
9915;DHT22;4996;48.746;9.174;2023-04-19T07:49:51;11.40;99.90
9915;DHT22;4996;48.746;9.174;2023-04-19T07:52:16;11.50;99.90
9915;DHT22;4996;48.746;9.174;2023-04-19T07:54:42;11.50;99.90
9915;DHT22;4996;48.746;9.174;2023-04-19T07:57:08;11.70;99.90
9915;DHT22;4996;48.746;9.174;2023-04-19T07:59:33;11.70;99.90
9915;DHT22;4996;48.746;9.174;2023-04-19T08:01:59;11.80;99.90
9915;DHT22;4996;48.746;9.174;2023-04-19T08:04:25;11.90;99.90
9915;DHT22;4996;48.746;9.174;2023-04-19T08:06:50;12.10;99.90
9915;DHT22;4996;48.746;9.174;2023-04-19T08:09:17;12.40;99.90
9915;DHT22;4996;48.746;9.174;2023-04-19T08:11:42;12.40;99.90
9915;DHT22;4996;48.746;9.174;2023-04-19T08:14:08;12.60;99.90
9915;DHT22;4996;48.746;9.174;2023-04-19T08:16:34;12.60;99.90
9915;DHT22;4996;48.746;9.174;2023-04-19T08:19:00;12.70;99.90
9915;DHT22;4996;48.746;9.174;2023-04-19T08:21:25;12.80;99.90
9915;DHT22;4996;48.746;9.174;2023-04-19T08:23:51;12.60;99.90
9915;DHT22;4996;48.746;9.174;2023-04-19T08:26:16;12.60;99.90
9915;DHT22;4996;48.746;9.174;2023-04-19T08:28:42;12.80;99.90
9915;DHT22;4996;48.746;9.174;2023-04-19T08:31:08;12.90;99.90
9915;DHT22;4996;48.746;9.174;2023-04-19T08:33:33;13.10;99.90
9915;DHT22;4996;48.746;9.174;2023-04-19T08:35:59;12.90;99.90
9915;DHT22;4996;48.746;9.174;2023-04-19T08:38:25;12.90;99.90
9915;DHT22;4996;48.746;9.174;2023-04-19T08:40:53;12.40;99.90
9915;DHT22;4996;48.746;9.174;2023-04-19T08:43:20;12.60;99.90
9915;DHT22;4996;48.746;9.174;2023-04-19T08:45:49;12.60;99.90
9915;DHT22;4996;48.746;9.174;2023-04-19T08:48:16;12.30;99.90
9915;DHT22;4996;48.746;9.174;2023-04-19T08:50:42;12.50;99.90
9915;DHT22;4996;48.746;9.174;2023-04-19T08:53:09;12.40;99.90
9915;DHT22;4996;48.746;9.174;2023-04-19T08:55:37;12.70;99.90
9915;DHT22;4996;48.746;9.174;2023-04-19T08:58:03;12.60;99.90
9915;DHT22;4996;48.746;9.174;2023-04-19T09:00:34;12.80;99.90
9915;DHT22;4996;48.746;9.174;2023-04-19T09:03:02;12.90;99.90
9915;DHT22;4996;48.746;9.174;2023-04-19T09:05:27;13.00;99.90
9915;DHT22;4996;48.746;9.174;2023-04-19T09:07:53;13.20;99.90
9915;DHT22;4996;48.746;9.174;2023-04-19T09:10:19;13.30;99.90
9915;DHT22;4996;48.746;9.174;2023-04-19T09:13:02;13.30;99.90
9915;DHT22;4996;48.746;9.174;2023-04-19T09:15:39;13.20;99.90
9915;DHT22;4996;48.746;9.174;2023-04-19T09:18:09;13.50;99.90
9915;DHT22;4996;48.746;9.174;2023-04-19T09:20:36;13.50;99.90
9915;DHT22;4996;48.746;9.174;2023-04-19T09:23:07;13.60;99.90
9915;DHT22;4996;48.746;9.174;2023-04-19T09:25:33;14.30;99.90
9915;DHT22;4996;48.746;9.174;2023-04-19T09:28:10;15.00;99.90
9915;DHT22;4996;48.746;9.174;2023-04-19T09:30:36;15.10;99.90
9915;DHT22;4996;48.746;9.174;2023-04-19T09:33:02;15.60;99.90
9915;DHT22;4996;48.746;9.174;2023-04-19T09:35:39;15.60;99.90
9915;DHT22;4996;48.746;9.174;2023-04-19T09:38:05;15.90;99.90
9915;DHT22;4996;48.746;9.174;2023-04-19T09:40:31;15.40;99.90
9915;DHT22;4996;48.746;9.174;2023-04-19T09:42:56;14.80;99.90
9915;DHT22;4996;48.746;9.174;2023-04-19T09:45:22;14.20;99.90
9915;DHT22;4996;48.746;9.174;2023-04-19T09:48:05;14.20;99.90
9915;DHT22;4996;48.746;9.174;2023-04-19T09:50:33;13.80;99.90
9915;DHT22;4996;48.746;9.174;2023-04-19T09:52:59;13.70;99.90
9915;DHT22;4996;48.746;9.174;2023-04-19T09:55:26;13.60;99.90
9915;DHT22;4996;48.746;9.174;2023-04-19T09:57:52;13.70;99.90
9915;DHT22;4996;48.746;9.174;2023-04-19T10:00:18;14.10;99.90
9915;DHT22;4996;48.746;9.174;2023-04-19T10:02:46;14.10;99.90
9915;DHT22;4996;48.746;9.174;2023-04-19T10:05:20;13.80;99.90
9915;DHT22;4996;48.746;9.174;2023-04-19T10:07:47;13.70;99.90
9915;DHT22;4996;48.746;9.174;2023-04-19T10:10:15;13.50;99.90
9915;DHT22;4996;48.746;9.174;2023-04-19T10:12:46;13.70;99.90
9915;DHT22;4996;48.746;9.174;2023-04-19T10:15:13;13.90;99.90
9915;DHT22;4996;48.746;9.174;2023-04-19T10:17:40;14.30;99.90
9915;DHT22;4996;48.746;9.174;2023-04-19T10:20:08;14.90;99.90
9915;DHT22;4996;48.746;9.174;2023-04-19T10:22:35;14.90;99.90
9915;DHT22;4996;48.746;9.174;2023-04-19T10:25:14;15.10;99.90
9915;DHT22;4996;48.746;9.174;2023-04-19T10:27:41;15.20;99.90
9915;DHT22;4996;48.746;9.174;2023-04-19T10:30:18;15.40;99.90
9915;DHT22;4996;48.746;9.174;2023-04-19T10:32:50;15.10;99.90
9915;DHT22;4996;48.746;9.174;2023-04-19T10:35:18;15.40;99.90
9915;DHT22;4996;48.746;9.174;2023-04-19T10:41:00;15.30;99.90
9915;DHT22;4996;48.746;9.174;2023-04-19T10:43:32;15.50;99.90
9915;DHT22;4996;48.746;9.174;2023-04-19T10:48:32;15.30;99.90
9915;DHT22;4996;48.746;9.174;2023-04-19T10:53:46;14.90;99.90
9915;DHT22;4996;48.746;9.174;2023-04-19T10:56:13;14.60;99.90
9915;DHT22;4996;48.746;9.174;2023-04-19T11:01:38;14.80;99.90
9915;DHT22;4996;48.746;9.174;2023-04-19T11:04:07;15.00;99.90
9915;DHT22;4996;48.746;9.174;2023-04-19T11:06:33;15.00;99.90
9915;DHT22;4996;48.746;9.174;2023-04-19T11:08:59;14.40;99.90
9915;DHT22;4996;48.746;9.174;2023-04-19T11:11:27;14.20;99.90
9915;DHT22;4996;48.746;9.174;2023-04-19T11:13:54;14.10;99.90
9915;DHT22;4996;48.746;9.174;2023-04-19T11:16:20;13.80;99.90
9915;DHT22;4996;48.746;9.174;2023-04-19T11:18:46;13.80;99.90
9915;DHT22;4996;48.746;9.174;2023-04-19T11:21:12;14.00;99.90
9915;DHT22;4996;48.746;9.174;2023-04-19T11:23:39;13.80;99.90
9915;DHT22;4996;48.746;9.174;2023-04-19T11:26:05;13.80;99.90
9915;DHT22;4996;48.746;9.174;2023-04-19T11:28:34;13.50;99.90
9915;DHT22;4996;48.746;9.174;2023-04-19T11:31:00;13.60;99.90
9915;DHT22;4996;48.746;9.174;2023-04-19T11:33:25;13.40;99.90
9915;DHT22;4996;48.746;9.174;2023-04-19T11:35:53;13.30;99.90
9915;DHT22;4996;48.746;9.174;2023-04-19T11:38:18;13.20;99.90
9915;DHT22;4996;48.746;9.174;2023-04-19T11:40:44;13.20;99.90
9915;DHT22;4996;48.746;9.174;2023-04-19T11:43:09;13.00;99.90
9915;DHT22;4996;48.746;9.174;2023-04-19T11:45:36;13.00;99.90
9915;DHT22;4996;48.746;9.174;2023-04-19T11:48:03;12.90;99.90
9915;DHT22;4996;48.746;9.174;2023-04-19T11:50:40;12.70;99.90
9915;DHT22;4996;48.746;9.174;2023-04-19T11:53:20;12.70;99.90
9915;DHT22;4996;48.746;9.174;2023-04-19T11:55:54;12.60;99.90
9915;DHT22;4996;48.746;9.174;2023-04-19T11:58:28;12.00;99.90
9915;DHT22;4996;48.746;9.174;2023-04-19T12:01:07;12.10;99.90
9915;DHT22;4996;48.746;9.174;2023-04-19T12:03:34;12.30;99.90
9915;DHT22;4996;48.746;9.174;2023-04-19T12:06:01;12.30;99.90
9915;DHT22;4996;48.746;9.174;2023-04-19T12:08:36;12.10;99.90
9915;DHT22;4996;48.746;9.174;2023-04-19T12:11:02;12.10;99.90
9915;DHT22;4996;48.746;9.174;2023-04-19T12:13:28;12.00;99.90
9915;DHT22;4996;48.746;9.174;2023-04-19T12:15:55;11.80;99.90
9915;DHT22;4996;48.746;9.174;2023-04-19T12:18:21;11.80;99.90
9915;DHT22;4996;48.746;9.174;2023-04-19T12:20:49;11.70;99.90
9915;DHT22;4996;48.746;9.174;2023-04-19T12:23:17;11.60;99.90
9915;DHT22;4996;48.746;9.174;2023-04-19T12:25:44;11.40;99.90
9915;DHT22;4996;48.746;9.174;2023-04-19T12:28:14;11.30;99.90
9915;DHT22;4996;48.746;9.174;2023-04-19T12:30:40;11.30;99.90
9915;DHT22;4996;48.746;9.174;2023-04-19T12:33:07;11.40;99.90
9915;DHT22;4996;48.746;9.174;2023-04-19T12:35:33;11.30;99.90
9915;DHT22;4996;48.746;9.174;2023-04-19T12:38:00;11.10;99.90
9915;DHT22;4996;48.746;9.174;2023-04-19T12:40:27;11.10;99.90
9915;DHT22;4996;48.746;9.174;2023-04-19T12:42:53;11.10;99.90
9915;DHT22;4996;48.746;9.174;2023-04-19T12:45:19;11.10;99.90
9915;DHT22;4996;48.746;9.174;2023-04-19T12:47:46;11.20;99.90
9915;DHT22;4996;48.746;9.174;2023-04-19T12:50:13;11.20;99.90
9915;DHT22;4996;48.746;9.174;2023-04-19T12:52:39;10.90;99.90
9915;DHT22;4996;48.746;9.174;2023-04-19T12:55:05;11.00;99.90
9915;DHT22;4996;48.746;9.174;2023-04-19T12:57:31;11.00;99.90
9915;DHT22;4996;48.746;9.174;2023-04-19T12:59:56;10.80;99.90
9915;DHT22;4996;48.746;9.174;2023-04-19T13:02:22;10.70;99.90
9915;DHT22;4996;48.746;9.174;2023-04-19T13:04:47;10.70;99.90
9915;DHT22;4996;48.746;9.174;2023-04-19T13:07:13;10.80;99.90
9915;DHT22;4996;48.746;9.174;2023-04-19T13:09:39;10.80;99.90
9915;DHT22;4996;48.746;9.174;2023-04-19T13:12:05;10.70;99.90
9915;DHT22;4996;48.746;9.174;2023-04-19T13:14:30;10.40;99.90
9915;DHT22;4996;48.746;9.174;2023-04-19T13:16:56;10.50;99.90
9915;DHT22;4996;48.746;9.174;2023-04-19T13:19:21;10.60;99.90
9915;DHT22;4996;48.746;9.174;2023-04-19T13:21:47;10.60;99.90
9915;DHT22;4996;48.746;9.174;2023-04-19T13:24:12;10.60;99.90
9915;DHT22;4996;48.746;9.174;2023-04-19T13:26:38;10.50;99.90
9915;DHT22;4996;48.746;9.174;2023-04-19T13:29:04;10.50;99.90
9915;DHT22;4996;48.746;9.174;2023-04-19T13:31:29;10.50;99.90
9915;DHT22;4996;48.746;9.174;2023-04-19T13:33:55;10.50;99.90
9915;DHT22;4996;48.746;9.174;2023-04-19T13:36:21;10.60;99.90
9915;DHT22;4996;48.746;9.174;2023-04-19T13:38:47;10.60;99.90
9915;DHT22;4996;48.746;9.174;2023-04-19T13:41:12;10.40;99.90
9915;DHT22;4996;48.746;9.174;2023-04-19T13:43:38;10.40;99.90
9915;DHT22;4996;48.746;9.174;2023-04-19T13:46:04;10.50;99.90
9915;DHT22;4996;48.746;9.174;2023-04-19T13:48:30;10.60;99.90
9915;DHT22;4996;48.746;9.174;2023-04-19T13:50:56;10.70;99.90
9915;DHT22;4996;48.746;9.174;2023-04-19T13:53:23;10.80;99.90
9915;DHT22;4996;48.746;9.174;2023-04-19T13:55:49;10.90;99.90
9915;DHT22;4996;48.746;9.174;2023-04-19T13:58:15;10.90;99.90
9915;DHT22;4996;48.746;9.174;2023-04-19T14:00:40;11.00;99.90
9915;DHT22;4996;48.746;9.174;2023-04-19T14:03:06;11.00;99.90
9915;DHT22;4996;48.746;9.174;2023-04-19T14:05:31;11.10;99.90
9915;DHT22;4996;48.746;9.174;2023-04-19T14:07:57;11.10;99.90
9915;DHT22;4996;48.746;9.174;2023-04-19T14:10:23;11.00;99.90
9915;DHT22;4996;48.746;9.174;2023-04-19T14:12:49;11.10;99.90
9915;DHT22;4996;48.746;9.174;2023-04-19T14:15:17;11.10;99.90
9915;DHT22;4996;48.746;9.174;2023-04-19T14:17:43;11.30;99.90
9915;DHT22;4996;48.746;9.174;2023-04-19T14:20:09;11.40;99.90
9915;DHT22;4996;48.746;9.174;2023-04-19T14:22:35;11.50;99.90
9915;DHT22;4996;48.746;9.174;2023-04-19T14:25:01;11.60;99.90
9915;DHT22;4996;48.746;9.174;2023-04-19T14:27:27;11.40;99.90
9915;DHT22;4996;48.746;9.174;2023-04-19T14:29:52;11.60;99.90
9915;DHT22;4996;48.746;9.174;2023-04-19T14:32:18;11.50;99.90
9915;DHT22;4996;48.746;9.174;2023-04-19T14:34:43;11.60;99.90
9915;DHT22;4996;48.746;9.174;2023-04-19T14:37:09;11.70;99.90
9915;DHT22;4996;48.746;9.174;2023-04-19T14:39:34;11.80;99.90
9915;DHT22;4996;48.746;9.174;2023-04-19T14:42:00;11.80;99.90
9915;DHT22;4996;48.746;9.174;2023-04-19T14:44:26;11.90;99.90
9915;DHT22;4996;48.746;9.174;2023-04-19T14:46:51;11.80;99.90
9915;DHT22;4996;48.746;9.174;2023-04-19T14:49:16;12.00;99.90
9915;DHT22;4996;48.746;9.174;2023-04-19T14:51:42;11.60;99.90
9915;DHT22;4996;48.746;9.174;2023-04-19T14:54:08;11.70;99.90
9915;DHT22;4996;48.746;9.174;2023-04-19T14:56:35;11.80;99.90
9915;DHT22;4996;48.746;9.174;2023-04-19T14:59:01;11.90;99.90
9915;DHT22;4996;48.746;9.174;2023-04-19T15:01:26;12.00;99.90
9915;DHT22;4996;48.746;9.174;2023-04-19T15:03:52;12.00;99.90
9915;DHT22;4996;48.746;9.174;2023-04-19T15:06:17;12.10;99.90
9915;DHT22;4996;48.746;9.174;2023-04-19T15:08:43;12.00;99.90
9915;DHT22;4996;48.746;9.174;2023-04-19T15:11:08;11.80;99.90
9915;DHT22;4996;48.746;9.174;2023-04-19T15:13:34;11.80;99.90
9915;DHT22;4996;48.746;9.174;2023-04-19T15:16:00;11.80;99.90
9915;DHT22;4996;48.746;9.174;2023-04-19T15:18:28;11.80;99.90
9915;DHT22;4996;48.746;9.174;2023-04-19T15:20:53;11.80;99.90
9915;DHT22;4996;48.746;9.174;2023-04-19T15:23:22;11.90;99.90
9915;DHT22;4996;48.746;9.174;2023-04-19T15:25:48;12.00;99.90
9915;DHT22;4996;48.746;9.174;2023-04-19T15:28:14;12.10;99.90
9915;DHT22;4996;48.746;9.174;2023-04-19T15:30:40;12.00;99.90
9915;DHT22;4996;48.746;9.174;2023-04-19T15:33:05;11.90;99.90
9915;DHT22;4996;48.746;9.174;2023-04-19T15:35:31;12.00;99.90
9915;DHT22;4996;48.746;9.174;2023-04-19T15:37:57;12.00;99.90
9915;DHT22;4996;48.746;9.174;2023-04-19T15:40:22;12.10;99.90
9915;DHT22;4996;48.746;9.174;2023-04-19T15:42:49;12.30;99.90
9915;DHT22;4996;48.746;9.174;2023-04-19T15:45:15;12.30;99.90
9915;DHT22;4996;48.746;9.174;2023-04-19T15:47:40;12.30;99.90
9915;DHT22;4996;48.746;9.174;2023-04-19T15:50:06;12.40;99.90
9915;DHT22;4996;48.746;9.174;2023-04-19T15:52:32;12.50;99.90
9915;DHT22;4996;48.746;9.174;2023-04-19T15:54:58;12.50;99.90
9915;DHT22;4996;48.746;9.174;2023-04-19T15:57:23;12.50;99.90
9915;DHT22;4996;48.746;9.174;2023-04-19T15:59:49;12.60;99.90
9915;DHT22;4996;48.746;9.174;2023-04-19T16:02:14;12.60;99.90
9915;DHT22;4996;48.746;9.174;2023-04-19T16:04:40;12.40;99.90
9915;DHT22;4996;48.746;9.174;2023-04-19T16:07:06;12.40;99.90